Time;durP1;ratioP1;P1;durP2;ratioP2;P2;SDS_P1;SDS_P2;PMS_P1;PMS_P2;Temp;Humidity;BMP_temperature;BMP_pressure;BME280_temperature;BME280_humidity;BME280_pressure;Samples;Min_cycle;Max_cycle;Signal;HPM_P1;HPM_P2
2020/12/12 00:01:05;;;;;;;29.33;26.27;;;4.60;99.90;;;;;;5075638;28;20782;-73
2020/12/12 00:03:31;;;;;;;29.57;26.67;;;4.50;99.90;;;;;;5065707;28;20489;-73
2020/12/12 00:05:58;;;;;;;28.77;25.87;;;4.50;99.90;;;;;;5082006;28;20455;-74
2020/12/12 00:08:24;;;;;;;30.23;27.07;;;4.50;99.90;;;;;;5081258;28;20463;-73
2020/12/12 00:10:52;;;;;;;29.83;26.93;;;4.60;99.90;;;;;;5085194;28;20454;-73
2020/12/12 00:13:18;;;;;;;28.47;25.67;;;4.60;99.90;;;;;;5076929;28;20666;-73
2020/12/12 00:15:44;;;;;;;28.50;25.60;;;4.70;99.90;;;;;;5082346;28;20820;-73
2020/12/12 00:18:10;;;;;;;27.80;25.00;;;4.70;99.90;;;;;;5081902;28;20461;-74
2020/12/12 00:20:37;;;;;;;27.37;24.57;;;4.70;99.90;;;;;;5081274;28;20465;-73
2020/12/12 00:23:04;;;;;;;27.20;24.63;;;4.70;99.90;;;;;;5081798;28;20470;-73
2020/12/12 00:25:32;;;;;;;29.07;25.93;;;4.70;99.90;;;;;;5082152;28;20459;-74
2020/12/12 00:28:00;;;;;;;28.43;25.80;;;4.70;99.90;;;;;;5082012;28;20458;-73
2020/12/12 00:30:27;;;;;;;27.67;25.17;;;4.70;99.90;;;;;;5082149;28;20474;-73
2020/12/12 00:32:53;;;;;;;29.00;25.93;;;4.80;99.90;;;;;;5082481;28;20454;-74
2020/12/12 00:35:19;;;;;;;27.53;24.97;;;4.70;99.90;;;;;;5084469;28;20486;-74
2020/12/12 00:37:46;;;;;;;28.57;25.60;;;4.70;99.90;;;;;;5081519;28;20470;-74
2020/12/12 00:40:12;;;;;;;27.60;25.10;;;4.70;99.90;;;;;;5084181;28;20461;-73
2020/12/12 00:42:40;;;;;;;25.87;23.70;;;4.70;99.90;;;;;;5078746;28;20462;-72
2020/12/12 00:45:07;;;;;;;27.93;25.50;;;4.70;99.90;;;;;;5079624;28;20458;-73
2020/12/12 00:47:34;;;;;;;27.63;24.93;;;4.70;99.90;;;;;;5074363;28;20475;-74
2020/12/12 00:50:01;;;;;;;27.17;24.57;;;4.80;99.90;;;;;;5082475;28;20469;-73
2020/12/12 00:52:28;;;;;;;25.63;23.30;;;4.80;99.90;;;;;;5075420;28;20475;-73
2020/12/12 00:54:54;;;;;;;28.83;25.03;;;4.90;99.90;;;;;;5076061;28;20558;-73
2020/12/12 00:57:21;;;;;;;25.87;23.57;;;4.90;99.90;;;;;;5079299;28;20482;-74
2020/12/12 00:59:47;;;;;;;26.90;24.53;;;4.90;99.90;;;;;;5081858;28;20462;-74
2020/12/12 01:02:15;;;;;;;25.80;23.23;;;4.90;99.90;;;;;;5085493;28;20478;-73
2020/12/12 01:04:41;;;;;;;27.27;24.67;;;4.90;99.90;;;;;;5096925;28;20464;-72
2020/12/12 01:07:09;;;;;;;27.00;24.40;;;4.90;99.90;;;;;;5101550;28;20458;-73
2020/12/12 01:09:36;;;;;;;25.47;23.17;;;4.90;99.90;;;;;;5095829;28;20972;-73
2020/12/12 01:12:02;;;;;;;26.40;23.67;;;4.90;99.90;;;;;;5100934;28;20464;-74
2020/12/12 01:14:29;;;;;;;25.03;22.77;;;4.90;99.90;;;;;;5102566;28;20462;-75
2020/12/12 01:16:58;;;;;;;27.07;24.47;;;4.90;99.90;;;;;;5108271;28;20484;-76
2020/12/12 01:19:26;;;;;;;25.73;23.17;;;4.90;99.90;;;;;;5097978;28;20457;-76
2020/12/12 01:21:53;;;;;;;25.07;22.47;;;5.00;99.90;;;;;;5097644;28;20477;-73
2020/12/12 01:24:21;;;;;;;25.90;23.30;;;4.90;99.90;;;;;;5098545;28;20457;-74
2020/12/12 01:26:48;;;;;;;27.70;24.90;;;4.90;99.90;;;;;;5093286;28;20983;-74
2020/12/12 01:29:14;;;;;;;25.27;23.07;;;4.90;99.90;;;;;;5103284;28;20487;-75
2020/12/12 01:31:40;;;;;;;26.17;23.57;;;5.00;99.90;;;;;;5104953;28;20861;-76
2020/12/12 01:34:07;;;;;;;25.50;23.10;;;5.00;99.90;;;;;;5098841;28;20978;-74
2020/12/12 01:36:35;;;;;;;27.00;23.20;;;5.00;99.90;;;;;;5098055;28;20489;-76
2020/12/12 01:39:01;;;;;;;25.03;22.93;;;5.00;99.90;;;;;;5102411;28;20453;-76
2020/12/12 01:41:27;;;;;;;24.17;21.90;;;5.10;99.90;;;;;;5093340;28;20457;-73
2020/12/12 01:43:54;;;;;;;24.97;22.50;;;5.10;99.90;;;;;;5093686;28;20454;-75
2020/12/12 01:46:23;;;;;;;24.03;21.70;;;5.10;99.90;;;;;;5114303;27;20451;-75
2020/12/12 01:48:53;;;;;;;23.40;21.30;;;5.10;99.90;;;;;;5105653;28;20452;-73
2020/12/12 01:51:24;;;;;;;23.70;21.30;;;5.20;99.90;;;;;;5102108;28;20468;-74
2020/12/12 01:53:54;;;;;;;25.03;21.77;;;5.30;99.90;;;;;;5102781;27;20511;-73
2020/12/12 01:56:22;;;;;;;22.43;20.63;;;5.20;99.90;;;;;;5107148;28;20488;-72
2020/12/12 01:58:49;;;;;;;24.73;22.13;;;5.30;99.90;;;;;;5105415;28;20537;-73
2020/12/12 02:01:19;;;;;;;23.13;20.70;;;5.30;99.90;;;;;;5106156;28;20453;-75
2020/12/12 02:03:46;;;;;;;22.93;21.03;;;5.30;99.90;;;;;;5100366;28;20454;-76
2020/12/12 02:06:13;;;;;;;25.47;22.77;;;5.30;99.90;;;;;;5099386;28;20462;-75
2020/12/12 02:08:40;;;;;;;22.80;20.70;;;5.40;99.90;;;;;;5099446;28;20458;-77
2020/12/12 02:11:12;;;;;;;24.83;22.63;;;5.40;99.90;;;;;;5102357;28;20454;-74
2020/12/12 02:13:45;;;;;;;22.60;20.57;;;5.40;99.90;;;;;;5100613;28;20464;-75
2020/12/12 02:16:13;;;;;;;24.03;21.83;;;5.40;99.90;;;;;;5100498;28;20568;-73
2020/12/12 02:18:39;;;;;;;24.00;21.80;;;5.50;99.90;;;;;;5102733;28;20473;-74
2020/12/12 02:21:06;;;;;;;23.10;20.90;;;5.50;99.90;;;;;;5101770;28;20511;-77
2020/12/12 02:23:35;;;;;;;23.50;21.50;;;5.50;99.90;;;;;;5102137;28;20454;-76
2020/12/12 02:26:03;;;;;;;23.40;21.20;;;5.50;99.90;;;;;;5105494;28;20470;-75
2020/12/12 02:28:34;;;;;;;25.20;22.47;;;5.50;99.90;;;;;;5096046;28;20963;-75
2020/12/12 02:31:00;;;;;;;23.60;21.50;;;5.40;99.90;;;;;;5107682;28;20548;-73
2020/12/12 02:33:27;;;;;;;24.23;21.87;;;5.50;99.90;;;;;;5102293;28;20451;-74
2020/12/12 02:35:55;;;;;;;26.00;23.50;;;5.50;99.90;;;;;;5101200;27;21000;-76
2020/12/12 02:38:22;;;;;;;24.47;22.20;;;5.50;99.90;;;;;;5101178;28;20481;-76
2020/12/12 02:40:49;;;;;;;24.47;22.40;;;5.50;99.90;;;;;;5099444;28;20499;-73
2020/12/12 02:43:16;;;;;;;27.00;23.77;;;5.40;99.90;;;;;;5100700;28;20516;-74
2020/12/12 02:45:46;;;;;;;25.73;23.33;;;5.40;99.90;;;;;;5105271;27;20453;-73
2020/12/12 02:48:12;;;;;;;26.70;22.90;;;5.40;99.90;;;;;;5100918;28;20514;-76
2020/12/12 02:50:39;;;;;;;27.23;24.73;;;5.40;99.90;;;;;;5098941;28;20446;-75
2020/12/12 02:53:06;;;;;;;32.20;25.10;;;5.40;99.90;;;;;;5099012;28;20450;-74
2020/12/12 02:55:33;;;;;;;27.33;24.50;;;5.40;99.90;;;;;;5107067;28;20476;-74
2020/12/12 02:58:01;;;;;;;26.37;23.87;;;5.40;99.90;;;;;;5102936;28;20460;-74
2020/12/12 03:00:28;;;;;;;27.50;24.60;;;5.40;99.90;;;;;;5101380;28;20454;-75
2020/12/12 03:02:54;;;;;;;27.27;24.47;;;5.30;99.90;;;;;;5101082;28;20459;-76
2020/12/12 03:05:21;;;;;;;29.77;25.70;;;5.30;99.90;;;;;;5104587;28;20463;-74
2020/12/12 03:07:47;;;;;;;25.57;23.13;;;5.20;99.90;;;;;;5104048;28;20458;-76
2020/12/12 03:10:14;;;;;;;29.80;26.33;;;5.20;99.90;;;;;;5103541;28;20489;-74
2020/12/12 03:12:41;;;;;;;29.93;25.47;;;5.20;99.90;;;;;;5106671;27;21056;-73
2020/12/12 03:15:10;;;;;;;27.97;25.27;;;5.20;99.90;;;;;;5101476;28;20788;-74
2020/12/12 03:17:38;;;;;;;28.70;26.10;;;5.20;99.90;;;;;;5103062;28;21021;-78
2020/12/12 03:20:06;;;;;;;28.67;25.90;;;5.20;99.90;;;;;;5101021;28;20556;-76
2020/12/12 03:22:34;;;;;;;28.43;25.20;;;5.10;99.90;;;;;;5096949;28;20947;-75
2020/12/12 03:25:01;;;;;;;29.67;26.57;;;5.10;99.90;;;;;;5106199;28;20514;-72
2020/12/12 03:27:28;;;;;;;29.90;26.90;;;5.10;99.90;;;;;;5097728;28;20488;-74
2020/12/12 03:29:55;;;;;;;29.13;26.10;;;5.20;99.90;;;;;;5103012;28;20590;-75
2020/12/12 03:32:23;;;;;;;30.37;27.47;;;5.10;99.90;;;;;;5103830;28;20469;-77
2020/12/12 03:34:49;;;;;;;32.37;26.43;;;5.20;99.90;;;;;;5097433;27;20490;-75
2020/12/12 03:37:15;;;;;;;31.03;27.60;;;5.20;99.90;;;;;;5105813;28;20479;-77
2020/12/12 03:39:43;;;;;;;33.73;26.67;;;5.20;99.90;;;;;;5103191;28;20453;-75
2020/12/12 03:42:11;;;;;;;30.63;27.67;;;5.20;99.90;;;;;;5094556;28;20454;-75
2020/12/12 03:44:37;;;;;;;29.30;26.70;;;5.20;99.90;;;;;;5093433;28;20453;-76
2020/12/12 03:47:05;;;;;;;30.77;27.80;;;5.10;99.90;;;;;;5100670;28;20803;-77
2020/12/12 03:49:33;;;;;;;30.13;27.10;;;5.20;99.90;;;;;;5098422;28;20842;-76
2020/12/12 03:51:59;;;;;;;30.87;27.73;;;5.20;99.90;;;;;;5104244;28;20518;-77
2020/12/12 03:54:26;;;;;;;30.10;27.10;;;5.20;99.90;;;;;;5099725;28;20807;-75
2020/12/12 03:56:54;;;;;;;30.90;27.80;;;5.20;99.90;;;;;;5101950;28;20480;-76
2020/12/12 03:59:20;;;;;;;30.40;27.63;;;5.10;99.90;;;;;;5104078;28;20453;-75
2020/12/12 04:01:48;;;;;;;29.70;26.77;;;5.10;99.90;;;;;;5103668;28;20607;-76
2020/12/12 04:04:15;;;;;;;30.37;27.07;;;5.10;99.90;;;;;;5102306;28;20491;-76
2020/12/12 04:06:42;;;;;;;33.70;28.90;;;5.10;99.90;;;;;;5102039;28;20457;-74
2020/12/12 04:09:08;;;;;;;30.50;27.20;;;5.20;99.90;;;;;;5101884;28;20453;-75
2020/12/12 04:11:35;;;;;;;32.50;29.23;;;5.10;99.90;;;;;;5094974;27;20829;-75
2020/12/12 04:14:01;;;;;;;31.67;28.57;;;5.10;99.90;;;;;;5102248;28;20459;-75
2020/12/12 04:16:28;;;;;;;31.43;28.70;;;5.10;99.90;;;;;;5104380;27;20473;-76
2020/12/12 04:18:55;;;;;;;29.87;27.10;;;5.10;99.90;;;;;;5099791;28;20504;-74
2020/12/12 04:21:23;;;;;;;31.23;28.20;;;5.10;99.90;;;;;;5098506;28;20827;-74
2020/12/12 04:23:50;;;;;;;32.03;28.73;;;5.10;99.90;;;;;;5099053;28;20497;-75
2020/12/12 04:26:17;;;;;;;30.30;26.77;;;5.10;99.90;;;;;;5101392;28;20454;-75
2020/12/12 04:28:43;;;;;;;30.90;27.60;;;5.10;99.90;;;;;;5101702;28;20844;-75
2020/12/12 04:31:10;;;;;;;39.77;30.47;;;5.10;99.90;;;;;;5103598;28;20448;-73
2020/12/12 04:33:37;;;;;;;31.27;27.97;;;5.10;99.90;;;;;;5102463;28;20449;-74
2020/12/12 04:36:04;;;;;;;30.40;27.37;;;5.10;99.90;;;;;;5102254;27;20498;-75
2020/12/12 04:38:31;;;;;;;32.93;28.97;;;5.10;99.90;;;;;;5104846;28;20442;-76
2020/12/12 04:40:59;;;;;;;34.63;30.90;;;5.10;99.90;;;;;;5101649;28;20457;-77
2020/12/12 04:43:26;;;;;;;32.53;29.33;;;5.10;99.90;;;;;;5096389;28;20929;-75
2020/12/12 04:45:53;;;;;;;40.17;30.53;;;5.10;99.90;;;;;;5101197;28;20453;-76
2020/12/12 04:48:19;;;;;;;33.47;30.10;;;5.10;99.90;;;;;;5101336;28;20469;-76
2020/12/12 04:50:47;;;;;;;34.43;30.77;;;5.10;99.90;;;;;;5101658;28;20460;-75
2020/12/12 04:53:15;;;;;;;34.63;31.13;;;5.20;99.90;;;;;;5099202;28;20500;-74
2020/12/12 04:55:44;;;;;;;34.00;30.40;;;5.20;99.90;;;;;;5102841;28;20453;-77
2020/12/12 04:58:15;;;;;;;32.23;29.13;;;5.20;99.90;;;;;;5102923;28;20457;-77
2020/12/12 05:00:46;;;;;;;33.97;30.37;;;5.20;99.90;;;;;;5101343;28;20453;-75
2020/12/12 05:03:13;;;;;;;35.73;32.00;;;5.10;99.90;;;;;;5095663;28;20936;-76
2020/12/12 05:05:40;;;;;;;35.40;30.03;;;5.20;99.90;;;;;;5092919;28;20446;-75
2020/12/12 05:08:08;;;;;;;33.90;30.27;;;5.20;99.90;;;;;;5097290;28;20453;-75
2020/12/12 05:10:38;;;;;;;34.63;30.40;;;5.20;99.90;;;;;;5097114;28;20864;-74
2020/12/12 05:13:15;;;;;;;34.23;30.37;;;5.20;99.90;;;;;;5097536;28;20497;-74
2020/12/12 05:15:41;;;;;;;35.10;30.93;;;5.20;99.90;;;;;;5105761;28;20805;-74
2020/12/12 05:18:08;;;;;;;32.77;29.67;;;5.30;99.90;;;;;;5100237;28;20466;-74
2020/12/12 05:20:34;;;;;;;33.17;29.90;;;5.20;99.90;;;;;;5102229;28;20461;-74
2020/12/12 05:23:01;;;;;;;35.63;30.87;;;5.30;99.90;;;;;;5103932;28;20468;-74
2020/12/12 05:25:27;;;;;;;39.07;29.80;;;5.30;99.90;;;;;;5109486;28;20460;-74
2020/12/12 05:27:54;;;;;;;34.60;31.13;;;5.30;99.90;;;;;;5099244;28;20451;-73
2020/12/12 05:30:22;;;;;;;34.60;31.00;;;5.30;99.90;;;;;;5107039;28;20478;-73
2020/12/12 05:32:49;;;;;;;35.20;30.63;;;5.40;99.90;;;;;;5101684;28;20807;-73
2020/12/12 05:35:15;;;;;;;37.57;31.90;;;5.30;99.90;;;;;;5101645;27;20824;-73
2020/12/12 05:37:42;;;;;;;32.60;29.20;;;5.40;99.90;;;;;;5100699;28;21037;-73
2020/12/12 05:40:08;;;;;;;35.20;31.50;;;5.30;99.90;;;;;;5100209;28;20464;-73
2020/12/12 05:42:36;;;;;;;37.83;31.23;;;5.40;99.90;;;;;;5099516;28;20460;-73
2020/12/12 05:45:05;;;;;;;35.33;31.53;;;5.40;99.90;;;;;;5104078;28;20455;-73
2020/12/12 05:47:34;;;;;;;34.70;30.90;;;5.40;99.90;;;;;;5102607;28;20948;-73
2020/12/12 05:50:01;;;;;;;35.13;31.17;;;5.40;99.90;;;;;;5099901;28;20453;-73
2020/12/12 05:52:29;;;;;;;37.03;32.17;;;5.40;99.90;;;;;;5105636;28;20483;-73
2020/12/12 05:54:55;;;;;;;37.80;30.77;;;5.40;99.90;;;;;;5105254;28;20467;-73
2020/12/12 05:57:23;;;;;;;37.47;32.53;;;5.40;99.90;;;;;;5102581;28;20843;-73
2020/12/12 05:59:50;;;;;;;37.10;33.20;;;5.40;99.90;;;;;;5104508;28;20520;-73
2020/12/12 06:02:16;;;;;;;36.90;32.00;;;5.50;99.90;;;;;;5106903;28;20453;-73
2020/12/12 06:04:52;;;;;;;36.77;32.87;;;5.50;99.90;;;;;;5106466;28;20472;-74
2020/12/12 06:07:27;;;;;;;35.97;32.10;;;5.50;99.90;;;;;;5102331;28;20449;-73
2020/12/12 06:09:59;;;;;;;37.97;33.90;;;5.60;99.90;;;;;;5099913;28;20446;-74
2020/12/12 06:12:25;;;;;;;38.70;33.87;;;5.50;99.90;;;;;;5104769;27;20453;-73
2020/12/12 06:14:56;;;;;;;37.77;33.87;;;5.60;99.90;;;;;;5101663;28;20458;-74
2020/12/12 06:17:38;;;;;;;50.50;35.40;;;5.60;99.90;;;;;;5111611;27;20493;-74
2020/12/12 06:20:06;;;;;;;37.17;32.03;;;5.50;99.90;;;;;;5102641;27;20453;-75
2020/12/12 06:22:33;;;;;;;35.67;31.63;;;5.60;99.90;;;;;;5100452;28;22422;-74
2020/12/12 06:25:02;;;;;;;36.57;32.60;;;5.60;99.90;;;;;;5103548;28;20489;-74
2020/12/12 06:27:37;;;;;;;38.47;33.40;;;5.60;99.90;;;;;;5097986;28;20507;-75
2020/12/12 06:30:06;;;;;;;38.90;32.17;;;5.60;99.90;;;;;;5104366;28;20563;-74
2020/12/12 06:32:32;;;;;;;38.27;33.77;;;5.60;99.90;;;;;;5103369;28;20485;-75
2020/12/12 06:34:59;;;;;;;38.17;34.17;;;5.70;99.90;;;;;;5105782;28;20474;-74
2020/12/12 06:37:29;;;;;;;35.93;32.10;;;5.70;99.90;;;;;;5104513;28;20480;-74
2020/12/12 06:39:57;;;;;;;40.20;35.03;;;5.70;99.90;;;;;;5104855;28;20453;-74
2020/12/12 06:42:34;;;;;;;40.43;36.23;;;5.80;99.90;;;;;;5099314;28;20466;-74
2020/12/12 06:45:03;;;;;;;39.00;34.80;;;5.70;99.90;;;;;;5104113;28;20467;-75
2020/12/12 06:47:40;;;;;;;37.50;33.60;;;5.70;99.90;;;;;;5099841;28;20465;-74
2020/12/12 06:50:09;;;;;;;42.40;35.10;;;5.70;99.90;;;;;;5106944;28;20456;-75
2020/12/12 06:52:38;;;;;;;45.60;36.27;;;5.60;99.90;;;;;;5105189;28;20486;-74
2020/12/12 06:55:07;;;;;;;38.87;34.83;;;5.60;99.90;;;;;;5102527;28;20706;-75
2020/12/12 06:57:37;;;;;;;42.43;33.90;;;5.60;99.90;;;;;;5101911;28;20489;-75
2020/12/12 07:00:06;;;;;;;41.70;33.97;;;5.70;99.90;;;;;;5103963;28;20472;-74
2020/12/12 07:02:32;;;;;;;46.87;33.87;;;5.70;99.90;;;;;;5097770;28;20465;-74
2020/12/12 07:05:17;;;;;;;43.50;34.13;;;5.70;99.90;;;;;;5095171;28;20458;-74
2020/12/12 07:07:45;;;;;;;42.17;34.73;;;5.70;99.90;;;;;;5099967;28;20458;-75
2020/12/12 07:10:12;;;;;;;51.27;35.77;;;5.70;99.90;;;;;;5098325;28;20459;-74
2020/12/12 07:12:39;;;;;;;48.13;34.20;;;5.70;99.90;;;;;;5100061;28;20948;-75
2020/12/12 07:15:05;;;;;;;43.50;34.30;;;5.80;99.90;;;;;;5102314;28;20455;-75
2020/12/12 07:17:32;;;;;;;37.57;33.03;;;5.70;99.90;;;;;;5105873;27;20497;-74
2020/12/12 07:20:00;;;;;;;45.27;34.83;;;5.70;99.90;;;;;;5102701;28;20445;-75
2020/12/12 07:22:28;;;;;;;41.77;34.33;;;5.70;99.90;;;;;;5101784;28;20939;-74
2020/12/12 07:24:57;;;;;;;46.60;34.90;;;5.70;99.90;;;;;;5099841;28;20485;-75
2020/12/12 07:27:24;;;;;;;48.63;36.87;;;5.70;99.90;;;;;;5100032;28;20551;-74
2020/12/12 07:29:50;;;;;;;46.93;38.60;;;5.70;99.90;;;;;;5100140;28;20488;-75
2020/12/12 07:32:17;;;;;;;44.50;35.60;;;5.70;99.90;;;;;;5106867;28;20441;-75
2020/12/12 07:34:43;;;;;;;43.80;35.47;;;5.70;99.90;;;;;;5104355;28;20472;-74
2020/12/12 07:37:11;;;;;;;42.97;35.40;;;5.80;99.90;;;;;;5101030;28;20540;-74
2020/12/12 07:39:40;;;;;;;45.57;34.47;;;5.70;99.90;;;;;;5104430;28;20461;-74
2020/12/12 07:42:10;;;;;;;46.53;35.90;;;5.70;99.90;;;;;;5101164;28;20835;-74
2020/12/12 07:44:39;;;;;;;40.27;34.10;;;5.70;99.90;;;;;;5106671;28;20931;-74
2020/12/12 07:47:08;;;;;;;39.73;34.10;;;5.80;99.90;;;;;;5109221;28;20550;-74
2020/12/12 07:49:36;;;;;;;47.67;35.43;;;5.80;99.90;;;;;;5101766;28;20450;-73
2020/12/12 07:52:07;;;;;;;51.57;40.17;;;5.90;99.90;;;;;;5104046;28;20471;-74
2020/12/12 07:54:38;;;;;;;47.63;35.20;;;5.90;99.90;;;;;;5105118;28;20455;-74
2020/12/12 07:57:07;;;;;;;38.77;34.70;;;5.90;99.90;;;;;;5107468;28;20492;-74
2020/12/12 07:59:34;;;;;;;51.17;37.53;;;5.90;99.90;;;;;;5107254;28;20442;-74
2020/12/12 08:02:04;;;;;;;58.63;42.57;;;5.90;99.90;;;;;;5104858;28;20554;-74
2020/12/12 08:04:31;;;;;;;57.87;36.37;;;6.00;99.90;;;;;;5102497;28;20940;-74
2020/12/12 08:06:57;;;;;;;53.23;39.27;;;6.00;99.90;;;;;;5099324;28;20457;-74
2020/12/12 08:09:25;;;;;;;56.40;41.37;;;5.90;99.90;;;;;;5102170;28;20445;-74
2020/12/12 08:11:59;;;;;;;59.53;39.87;;;5.90;99.90;;;;;;5100126;28;20496;-74
2020/12/12 08:14:27;;;;;;;59.27;41.47;;;5.90;99.90;;;;;;5101104;28;20453;-74
2020/12/12 08:16:58;;;;;;;65.90;44.10;;;5.90;99.90;;;;;;5096125;28;20825;-74
2020/12/12 08:19:26;;;;;;;47.73;38.67;;;5.90;99.90;;;;;;5099945;28;20513;-74
2020/12/12 08:22:07;;;;;;;53.33;39.13;;;5.90;99.90;;;;;;5101085;28;20450;-74
2020/12/12 08:24:33;;;;;;;46.80;36.20;;;5.90;99.90;;;;;;5094827;28;20458;-74
2020/12/12 08:27:00;;;;;;;37.63;32.13;;;5.90;99.90;;;;;;5099403;28;21098;-74
2020/12/12 08:29:27;;;;;;;44.60;34.50;;;5.90;99.90;;;;;;5100543;28;20492;-74
2020/12/12 08:31:55;;;;;;;43.43;34.37;;;5.90;99.90;;;;;;5101212;28;20459;-74
2020/12/12 08:34:23;;;;;;;47.70;34.07;;;5.90;99.90;;;;;;5095990;28;20480;-74
2020/12/12 08:36:49;;;;;;;43.33;32.97;;;5.90;99.90;;;;;;5099591;28;20476;-74
2020/12/12 08:39:17;;;;;;;45.57;34.30;;;5.90;99.90;;;;;;5096276;28;20470;-74
2020/12/12 08:41:44;;;;;;;45.63;33.97;;;5.90;99.90;;;;;;5098745;28;20475;-74
2020/12/12 08:44:23;;;;;;;46.47;33.80;;;5.90;99.90;;;;;;5102617;28;20446;-74
2020/12/12 08:46:53;;;;;;;47.80;33.70;;;6.00;99.90;;;;;;5103094;28;20451;-74
2020/12/12 08:49:23;;;;;;;44.10;34.10;;;6.00;99.90;;;;;;5099018;28;20452;-74
2020/12/12 08:51:52;;;;;;;43.70;33.90;;;6.00;99.90;;;;;;5100182;28;20474;-74
2020/12/12 08:54:18;;;;;;;44.70;34.30;;;6.00;99.90;;;;;;5106839;28;20869;-74
2020/12/12 08:56:44;;;;;;;43.43;32.73;;;6.10;99.90;;;;;;5107689;28;20476;-74
2020/12/12 08:59:20;;;;;;;57.47;36.63;;;6.10;99.90;;;;;;5108277;28;20464;-74
2020/12/12 09:01:47;;;;;;;48.30;34.67;;;6.20;99.90;;;;;;5102248;28;20457;-74
2020/12/12 09:04:20;;;;;;;47.80;34.40;;;6.10;99.90;;;;;;5103308;28;20458;-74
2020/12/12 09:06:52;;;;;;;44.57;32.57;;;6.20;99.90;;;;;;5107710;28;20498;-74
2020/12/12 09:09:20;;;;;;;55.83;35.37;;;6.20;99.90;;;;;;5093248;28;20464;-74
2020/12/12 09:11:48;;;;;;;41.93;33.40;;;6.20;99.90;;;;;;5101939;28;20563;-74
2020/12/12 09:14:15;;;;;;;48.30;33.70;;;6.20;99.90;;;;;;5098650;28;20451;-74
2020/12/12 09:16:48;;;;;;;42.80;33.50;;;6.20;99.90;;;;;;5099026;28;20834;-73
2020/12/12 09:19:15;;;;;;;46.13;32.77;;;6.10;99.90;;;;;;5092216;28;20484;-74
2020/12/12 09:21:42;;;;;;;43.77;33.17;;;6.10;99.90;;;;;;5095244;28;20475;-73
2020/12/12 09:24:09;;;;;;;39.97;33.67;;;6.10;99.90;;;;;;5094867;28;20459;-74
2020/12/12 09:26:35;;;;;;;39.67;32.67;;;6.10;99.90;;;;;;5102320;28;20485;-73
2020/12/12 09:29:01;;;;;;;45.27;34.10;;;6.20;99.90;;;;;;5101520;28;20473;-74
2020/12/12 09:31:28;;;;;;;54.40;33.30;;;6.20;99.90;;;;;;5099671;28;20990;-73
2020/12/12 09:33:54;;;;;;;48.53;34.30;;;6.20;99.90;;;;;;5094157;28;20481;-73
2020/12/12 09:36:21;;;;;;;50.30;33.60;;;6.30;99.90;;;;;;5105683;27;20464;-74
2020/12/12 09:38:49;;;;;;;51.73;33.73;;;6.30;99.90;;;;;;5099733;28;20449;-73
2020/12/12 09:41:15;;;;;;;42.27;32.87;;;6.30;99.90;;;;;;5101348;28;20450;-73
2020/12/12 09:43:42;;;;;;;43.50;33.37;;;6.30;99.90;;;;;;5099832;28;20457;-73
2020/12/12 09:46:09;;;;;;;45.57;33.60;;;6.40;99.90;;;;;;5098809;28;20453;-73
2020/12/12 09:48:36;;;;;;;52.83;32.50;;;6.30;99.90;;;;;;5104397;28;20455;-73
2020/12/12 09:51:03;;;;;;;50.73;34.13;;;6.40;99.90;;;;;;5093379;28;20465;-73
2020/12/12 09:53:30;;;;;;;46.57;32.63;;;6.50;99.90;;;;;;5098178;28;20461;-73
2020/12/12 09:56:00;;;;;;;44.90;33.00;;;6.50;99.90;;;;;;5101169;28;20457;-73
2020/12/12 09:58:27;;;;;;;51.63;33.33;;;6.60;99.90;;;;;;5102692;28;20469;-73
2020/12/12 10:00:54;;;;;;;45.17;31.77;;;6.60;99.90;;;;;;5104339;28;20460;-73
2020/12/12 10:03:23;;;;;;;46.00;33.20;;;6.60;99.90;;;;;;5101589;28;20461;-73
2020/12/12 10:05:49;;;;;;;40.73;31.93;;;6.80;99.90;;;;;;5108784;28;20453;-73
2020/12/12 10:08:16;;;;;;;41.70;31.60;;;6.90;99.90;;;;;;5104257;28;20445;-73
2020/12/12 10:10:43;;;;;;;45.90;33.00;;;6.90;99.90;;;;;;5100647;28;20507;-74
2020/12/12 10:13:12;;;;;;;39.97;30.67;;;7.00;99.90;;;;;;5102506;28;20459;-73
2020/12/12 10:15:38;;;;;;;50.40;31.80;;;7.10;99.90;;;;;;5099319;28;20480;-73
2020/12/12 10:18:08;;;;;;;49.53;32.97;;;7.10;99.90;;;;;;5107091;28;20487;-73
2020/12/12 10:20:34;;;;;;;53.43;32.40;;;7.20;99.90;;;;;;5101541;28;20523;-73
2020/12/12 10:23:01;;;;;;;40.80;31.57;;;7.30;99.90;;;;;;5099293;28;20469;-73
2020/12/12 10:25:28;;;;;;;44.13;30.90;;;7.40;99.90;;;;;;5105715;28;20456;-73
2020/12/12 10:27:56;;;;;;;41.23;31.00;;;7.60;99.90;;;;;;5105702;28;20818;-73
2020/12/12 10:30:24;;;;;;;47.17;33.10;;;7.70;99.90;;;;;;5105397;27;20477;-73
2020/12/12 10:32:51;;;;;;;39.60;29.90;;;7.70;99.90;;;;;;5098780;28;20544;-73
2020/12/12 10:35:18;;;;;;;46.97;34.70;;;7.70;99.90;;;;;;5096839;28;20481;-73
2020/12/12 10:37:44;;;;;;;43.50;31.00;;;7.70;99.90;;;;;;5096157;28;20493;-73
2020/12/12 10:40:16;;;;;;;55.57;31.93;;;7.80;99.90;;;;;;5104640;28;20540;-72
2020/12/12 10:42:42;;;;;;;46.47;32.30;;;7.70;99.90;;;;;;5095253;28;20865;-73
2020/12/12 10:45:10;;;;;;;56.70;30.77;;;7.70;99.90;;;;;;5106134;28;20460;-73
2020/12/12 10:47:40;;;;;;;43.30;31.00;;;7.90;99.90;;;;;;5107092;28;20457;-73
2020/12/12 10:50:07;;;;;;;40.60;30.80;;;7.90;99.90;;;;;;5101170;28;20461;-73
2020/12/12 10:52:34;;;;;;;38.93;29.47;;;7.80;99.90;;;;;;5095276;28;20792;-73
2020/12/12 10:55:03;;;;;;;44.63;32.90;;;7.80;99.90;;;;;;5097539;28;20461;-74
2020/12/12 10:57:29;;;;;;;54.00;33.97;;;7.90;99.90;;;;;;5098465;28;20508;-73
2020/12/12 10:59:55;;;;;;;68.97;40.80;;;8.00;99.90;;;;;;5105030;28;20512;-73
2020/12/12 11:02:22;;;;;;;54.73;36.87;;;8.00;99.90;;;;;;5099578;27;20891;-73
2020/12/12 11:04:49;;;;;;;51.47;33.47;;;8.00;99.90;;;;;;5101413;28;20456;-73
2020/12/12 11:07:16;;;;;;;45.90;35.00;;;8.00;99.90;;;;;;5101176;28;20469;-73
2020/12/12 11:09:43;;;;;;;40.20;33.33;;;8.00;99.90;;;;;;5101174;28;20457;-73
2020/12/12 11:12:13;;;;;;;51.07;34.93;;;8.10;99.90;;;;;;5107601;27;20445;-73
2020/12/12 11:14:40;;;;;;;50.50;34.40;;;8.20;99.90;;;;;;5104322;28;20484;-73
2020/12/12 11:17:06;;;;;;;39.80;31.97;;;8.30;99.90;;;;;;5099911;28;20477;-73
2020/12/12 11:19:33;;;;;;;39.90;31.57;;;8.30;99.90;;;;;;5102526;28;20466;-73
2020/12/12 11:22:02;;;;;;;41.80;30.03;;;8.30;99.90;;;;;;5102924;28;20932;-73
2020/12/12 11:24:28;;;;;;;44.27;29.57;;;8.40;99.90;;;;;;5104808;28;20459;-73
2020/12/12 11:26:56;;;;;;;42.30;30.30;;;8.30;99.90;;;;;;5100133;28;20461;-73
2020/12/12 11:29:24;;;;;;;41.60;30.10;;;8.40;99.90;;;;;;5096730;28;20561;-72
2020/12/12 11:31:51;;;;;;;41.13;29.30;;;8.40;99.90;;;;;;5101374;28;20452;-73
2020/12/12 11:34:23;;;;;;;37.33;28.00;;;8.40;99.90;;;;;;5100999;28;20484;-73
2020/12/12 11:39:43;;;;;;;35.93;28.90;;;8.60;99.90;;;;;;5099400;28;20456;-73
2020/12/12 11:42:26;;;;;;;39.03;29.57;;;8.60;99.90;;;;;;5098646;28;20466;-73
2020/12/12 11:47:37;;;;;;;43.70;32.67;;;8.60;99.90;;;;;;5103035;28;20506;-74
2020/12/12 11:50:04;;;;;;;35.37;29.37;;;8.60;99.90;;;;;;5098345;28;20453;-74
2020/12/12 11:52:35;;;;;;;37.63;32.07;;;8.70;99.90;;;;;;5099899;28;21397;-73
2020/12/12 11:55:04;;;;;;;32.80;28.73;;;8.80;99.90;;;;;;5101970;28;20445;-74
2020/12/12 11:57:31;;;;;;;32.30;28.60;;;8.90;99.90;;;;;;5103537;28;20488;-74
2020/12/12 12:00:02;;;;;;;35.10;28.40;;;8.90;99.90;;;;;;5100549;28;20806;-74
2020/12/12 12:02:29;;;;;;;35.60;28.07;;;8.90;99.90;;;;;;5100999;28;20547;-74
2020/12/12 12:04:55;;;;;;;37.03;28.43;;;8.80;99.90;;;;;;5097823;28;20962;-74
2020/12/12 12:07:21;;;;;;;31.37;27.70;;;8.80;99.90;;;;;;5099746;28;20455;-73
2020/12/12 12:09:50;;;;;;;34.93;27.90;;;8.80;99.90;;;;;;5099243;28;20457;-74
2020/12/12 12:12:17;;;;;;;31.87;28.40;;;8.80;99.90;;;;;;5104452;28;20454;-73
2020/12/12 12:14:44;;;;;;;32.77;27.60;;;8.80;99.90;;;;;;5097741;28;20454;-73
2020/12/12 12:17:10;;;;;;;31.23;26.30;;;8.90;99.90;;;;;;5094455;28;20879;-74
2020/12/12 12:19:37;;;;;;;53.03;27.97;;;8.80;99.90;;;;;;5098919;28;20470;-73
2020/12/12 12:22:03;;;;;;;36.27;28.60;;;8.80;99.90;;;;;;5095510;28;20461;-74
2020/12/12 12:24:30;;;;;;;30.37;27.43;;;8.80;99.90;;;;;;5098765;28;20457;-74
2020/12/12 12:26:56;;;;;;;31.83;28.43;;;8.80;99.90;;;;;;5089110;28;20459;-74
2020/12/12 12:29:24;;;;;;;29.47;26.27;;;8.90;99.90;;;;;;5095920;28;20487;-74
2020/12/12 12:31:54;;;;;;;33.37;28.17;;;8.90;99.90;;;;;;5101227;28;20453;-73
2020/12/12 12:34:20;;;;;;;29.83;26.03;;;9.00;99.90;;;;;;5099311;28;20476;-74
2020/12/12 12:36:47;;;;;;;31.13;26.57;;;9.00;99.90;;;;;;5103626;28;20569;-74
2020/12/12 12:39:13;;;;;;;39.73;27.47;;;8.90;99.90;;;;;;5100242;28;20464;-74
2020/12/12 12:41:39;;;;;;;32.70;29.23;;;8.90;99.90;;;;;;5098922;28;20456;-73
2020/12/12 12:44:06;;;;;;;34.00;28.83;;;8.90;99.90;;;;;;5095694;28;20465;-74